Time;durP1;ratioP1;P1;durP2;ratioP2;P2;SDS_P1;SDS_P2;PMS_P1;PMS_P2;Temp;Humidity;BMP_temperature;BMP_pressure;BME280_temperature;BME280_humidity;BME280_pressure;Samples;Min_cycle;Max_cycle;Signal;HPM_P1;HPM_P2
2023/08/25 00:00:09;;;;;;;73.22;45.55;;;18.50;99.90;;;;;;5075962;28;20050;-69
2023/08/25 00:02:36;;;;;;;72.60;47.85;;;18.20;99.90;;;;;;5076273;28;20097;-68
2023/08/25 00:05:03;;;;;;;78.15;49.92;;;20.00;99.90;;;;;;5093039;28;20369;-69
2023/08/25 00:07:29;;;;;;;78.35;48.67;;;18.70;99.90;;;;;;5055928;28;20105;-69
2023/08/25 00:09:55;;;;;;;80.15;50.80;;;19.40;99.90;;;;;;5073557;28;20400;-69
2023/08/25 00:12:22;;;;;;;76.65;49.03;;;18.20;99.90;;;;;;5073577;28;20036;-68
2023/08/25 00:14:48;;;;;;;78.00;49.72;;;19.80;99.90;;;;;;5072136;28;20044;-68
2023/08/25 00:17:14;;;;;;;82.22;48.88;;;;;;;;;;5055766;28;20037;-69
2023/08/25 00:19:40;;;;;;;71.18;44.83;;;19.90;99.90;;;;;;5072140;28;20056;-69
2023/08/25 00:22:06;;;;;;;89.28;52.58;;;19.60;99.90;;;;;;5072235;28;20048;-69
2023/08/25 00:24:35;;;;;;;89.40;50.72;;;;;;;;;;5055508;28;20102;-69
2023/08/25 00:27:01;;;;;;;74.93;45.47;;;20.10;99.90;;;;;;5055597;28;20036;-69
2023/08/25 00:29:27;;;;;;;79.07;46.65;;;18.30;99.90;;;;;;5071974;28;20101;-69
2023/08/25 00:31:53;;;;;;;78.78;48.03;;;;;;;;;;5072151;28;20036;-69
2023/08/25 00:34:18;;;;;;;79.50;50.70;;;19.70;99.90;;;;;;5072226;28;20036;-69
2023/08/25 00:36:44;;;;;;;74.18;47.15;;;19.70;99.90;;;;;;5055184;28;20451;-68
2023/08/25 00:39:10;;;;;;;82.20;51.20;;;20.10;99.90;;;;;;5071870;28;20127;-69
2023/08/25 00:41:36;;;;;;;81.45;50.58;;;20.10;99.90;;;;;;5055264;28;20044;-69
2023/08/25 00:44:02;;;;;;;82.47;51.20;;;19.50;99.90;;;;;;5071914;28;20044;-74
2023/08/25 00:46:29;;;;;;;92.32;54.70;;;19.80;99.90;;;;;;5071893;28;20511;-74
2023/08/25 00:48:55;;;;;;;94.05;54.38;;;19.40;99.90;;;;;;5071982;28;20051;-74
2023/08/25 00:51:21;;;;;;;95.57;54.50;;;20.10;99.90;;;;;;5071686;28;20086;-74
2023/08/25 00:53:48;;;;;;;95.88;53.45;;;19.20;99.90;;;;;;5071714;28;20048;-74
2023/08/25 00:56:15;;;;;;;95.90;55.97;;;19.90;99.90;;;;;;5071923;28;20040;-74
2023/08/25 00:58:41;;;;;;;90.90;54.78;;;20.10;99.90;;;;;;5071897;28;20040;-74
2023/08/25 01:01:07;;;;;;;92.35;56.13;;;;;;;;;;5071822;28;20040;-74
2023/08/25 01:03:35;;;;;;;93.97;54.72;;;19.90;99.90;;;;;;5055151;28;20036;-74
2023/08/25 01:06:02;;;;;;;100.43;59.92;;;18.70;99.90;;;;;;5055232;28;20040;-74
2023/08/25 01:08:29;;;;;;;102.18;58.03;;;19.70;99.90;;;;;;5068193;28;20047;-74
2023/08/25 01:11:01;;;;;;;108.60;57.17;;;19.70;99.90;;;;;;5091922;28;20039;-74
2023/08/25 01:13:36;;;;;;;113.63;60.35;;;18.80;99.90;;;;;;5075135;28;20040;-74
2023/08/25 01:16:05;;;;;;;109.95;58.67;;;20.10;99.90;;;;;;5092988;28;20487;-74
2023/08/25 01:18:33;;;;;;;108.72;59.58;;;19.30;99.90;;;;;;5091717;28;20048;-74
2023/08/25 01:21:00;;;;;;;104.32;57.97;;;19.80;99.90;;;;;;5095876;28;20122;-69
2023/08/25 01:23:38;;;;;;;112.05;60.17;;;19.90;99.90;;;;;;5095852;28;20043;-69
2023/08/25 01:26:04;;;;;;;107.25;57.85;;;19.30;99.90;;;;;;5096025;28;20071;-74
2023/08/25 01:28:30;;;;;;;100.43;53.63;;;20.10;99.90;;;;;;5095559;28;20079;-74
2023/08/25 01:30:59;;;;;;;112.82;57.90;;;19.50;99.90;;;;;;5095955;28;20082;-74
2023/08/25 01:33:27;;;;;;;106.10;54.65;;;18.70;99.90;;;;;;5095815;28;20044;-74
2023/08/25 01:35:53;;;;;;;90.97;50.15;;;;;;;;;;5079017;28;20036;-74
2023/08/25 01:38:27;;;;;;;101.85;56.60;;;18.70;99.90;;;;;;5095857;28;20052;-74
2023/08/25 01:41:31;;;;;;;112.57;58.83;;;19.40;99.90;;;;;;5095814;28;20446;-74
2023/08/25 01:44:02;;;;;;;104.60;53.25;;;19.40;99.90;;;;;;5057382;28;20163;-74
2023/08/25 01:46:30;;;;;;;113.53;59.20;;;19.20;99.90;;;;;;5095476;28;20089;-74
2023/08/25 01:48:58;;;;;;;119.88;59.55;;;19.20;99.90;;;;;;5095201;28;20052;-69
2023/08/25 01:51:24;;;;;;;125.18;60.90;;;;;;;;;;5095508;28;20044;-74
2023/08/25 01:53:54;;;;;;;127.13;62.22;;;19.00;99.90;;;;;;5095238;28;20039;-69
2023/08/25 01:56:20;;;;;;;110.82;58.65;;;18.10;99.90;;;;;;5095147;28;20431;-69
2023/08/25 01:58:46;;;;;;;122.65;60.15;;;;;;;;;;5095413;28;20119;-74
2023/08/25 02:01:12;;;;;;;126.22;63.17;;;18.10;99.90;;;;;;5095120;28;20040;-74
2023/08/25 02:03:38;;;;;;;110.85;54.22;;;19.90;99.90;;;;;;5094948;28;20033;-74
2023/08/25 02:06:04;;;;;;;121.50;62.20;;;;;;;;;;5061391;28;20036;-74
2023/08/25 02:08:29;;;;;;;131.57;62.17;;;19.00;99.90;;;;;;5094673;28;20060;-74
2023/08/25 02:10:55;;;;;;;127.85;61.58;;;18.60;99.90;;;;;;5078095;28;20036;-69
2023/08/25 02:13:21;;;;;;;145.15;65.88;;;20.00;99.90;;;;;;5094843;28;20122;-69
2023/08/25 02:15:50;;;;;;;134.32;65.40;;;18.90;99.90;;;;;;5095030;28;20052;-74
2023/08/25 02:18:16;;;;;;;138.90;63.08;;;;;;;;;;5094694;28;20040;-75
2023/08/25 02:20:43;;;;;;;162.70;69.90;;;;;;;;;;5094716;28;20476;-69
2023/08/25 02:23:09;;;;;;;143.48;66.13;;;19.00;99.90;;;;;;5094949;28;20036;-69
2023/08/25 02:25:34;;;;;;;139.10;61.75;;;18.00;99.90;;;;;;5095915;28;20388;-69
2023/08/25 02:28:00;;;;;;;147.38;63.58;;;18.00;99.90;;;;;;5094810;28;20043;-69
2023/08/25 02:30:26;;;;;;;165.48;69.05;;;;;;;;;;5076275;28;20437;-69
2023/08/25 02:32:54;;;;;;;166.95;65.47;;;;;;;;;;5094463;28;20036;-69
2023/08/25 02:35:21;;;;;;;160.25;64.43;;;20.00;99.90;;;;;;5061405;28;20048;-69
2023/08/25 02:37:58;;;;;;;168.90;68.47;;;20.00;99.90;;;;;;5094367;28;20154;-69
2023/08/25 02:40:25;;;;;;;195.80;76.28;;;19.10;99.90;;;;;;5094612;28;20075;-69
2023/08/25 02:42:51;;;;;;;183.13;74.97;;;18.00;99.90;;;;;;5077537;28;20043;-69
2023/08/25 02:45:17;;;;;;;218.02;80.63;;;19.50;99.90;;;;;;5094630;28;20097;-69
2023/08/25 02:47:43;;;;;;;229.57;86.28;;;20.10;99.90;;;;;;5094375;28;20405;-68
2023/08/25 02:50:09;;;;;;;193.02;76.43;;;20.10;99.90;;;;;;5077146;28;20560;-68
2023/08/25 02:52:34;;;;;;;241.75;88.95;;;20.10;99.90;;;;;;5093990;28;20036;-68
2023/08/25 02:55:00;;;;;;;210.93;80.90;;;19.60;99.90;;;;;;5077269;28;20039;-68
2023/08/25 02:57:26;;;;;;;249.52;90.70;;;;;;;;;;5077062;28;20059;-68
2023/08/25 02:59:52;;;;;;;244.52;91.03;;;19.40;99.90;;;;;;5093971;28;20111;-73
2023/08/25 03:02:18;;;;;;;231.18;89.45;;;20.00;99.90;;;;;;5094155;28;20052;-73
2023/08/25 03:04:43;;;;;;;216.60;85.07;;;20.10;99.90;;;;;;5093918;28;20443;-73
2023/08/25 03:07:09;;;;;;;254.85;91.93;;;18.40;99.90;;;;;;5061193;28;20059;-73
2023/08/25 03:09:35;;;;;;;213.90;79.53;;;20.20;99.90;;;;;;5080100;28;20407;-73
2023/08/25 03:12:00;;;;;;;254.45;85.55;;;18.50;99.90;;;;;;5097114;28;20039;-73
2023/08/25 03:14:27;;;;;;;213.18;79.50;;;;;;;;;;5096982;28;20035;-73
2023/08/25 03:16:53;;;;;;;254.27;93.95;;;19.70;99.90;;;;;;5097336;28;20040;-73
2023/08/25 03:19:19;;;;;;;229.75;88.28;;;20.00;99.90;;;;;;5080117;28;20491;-73
2023/08/25 03:21:45;;;;;;;221.80;84.68;;;;;;;;;;5096944;28;20052;-73
2023/08/25 03:24:11;;;;;;;228.65;84.43;;;20.20;99.90;;;;;;5097067;28;20088;-73
2023/08/25 03:26:37;;;;;;;212.00;80.90;;;19.60;99.90;;;;;;5096814;28;20423;-73
2023/08/25 03:29:03;;;;;;;204.65;77.18;;;;;;;;;;5096629;28;20043;-73
2023/08/25 03:31:29;;;;;;;222.73;85.18;;;19.40;99.90;;;;;;5096770;28;20043;-68
2023/08/25 03:33:55;;;;;;;242.70;90.38;;;;;;;;;;5080058;28;20122;-68
2023/08/25 03:36:21;;;;;;;237.07;87.85;;;20.00;99.90;;;;;;5080063;28;20177;-68
2023/08/25 03:38:47;;;;;;;256.27;97.85;;;;;;;;;;5063321;28;20497;-68
2023/08/25 03:41:12;;;;;;;245.52;93.50;;;19.70;99.90;;;;;;5096463;28;20036;-68
2023/08/25 03:43:38;;;;;;;223.45;84.30;;;18.30;99.90;;;;;;5096391;28;20523;-68
2023/08/25 03:46:04;;;;;;;207.88;82.00;;;;;;;;;;5096549;28;20491;-68
2023/08/25 03:48:30;;;;;;;238.65;91.68;;;19.80;99.90;;;;;;5096435;28;20042;-68
2023/08/25 03:50:56;;;;;;;226.63;83.82;;;19.00;99.90;;;;;;5096354;28;20044;-68
2023/08/25 03:53:22;;;;;;;240.65;88.75;;;19.00;99.90;;;;;;5096207;28;20055;-68
2023/08/25 03:55:48;;;;;;;237.80;89.40;;;19.60;99.90;;;;;;5079611;28;20047;-68
2023/08/25 03:58:14;;;;;;;249.07;92.68;;;;;;;;;;5096023;28;20040;-68
2023/08/25 04:00:40;;;;;;;224.70;83.10;;;18.40;99.90;;;;;;5096449;28;20047;-68
2023/08/25 04:03:06;;;;;;;218.90;83.85;;;;;;;;;;5079533;28;20380;-68
2023/08/25 04:05:35;;;;;;;238.20;93.25;;;20.00;99.90;;;;;;5079364;28;20075;-68
2023/08/25 04:08:01;;;;;;;236.52;89.32;;;;;;;;;;5078951;28;20062;-68
2023/08/25 04:10:27;;;;;;;221.93;85.13;;;;;;;;;;5095875;28;20055;-68
2023/08/25 04:12:53;;;;;;;251.73;91.63;;;;;;;;;;5096161;28;20043;-68
2023/08/25 04:15:20;;;;;;;253.50;97.88;;;18.80;99.90;;;;;;5096164;28;20036;-68
2023/08/25 04:17:47;;;;;;;256.65;95.47;;;;;;;;;;5095853;28;20119;-73
2023/08/25 04:20:14;;;;;;;248.45;91.80;;;18.10;99.90;;;;;;5114114;28;20480;-68
2023/08/25 04:22:42;;;;;;;226.35;92.18;;;19.10;99.90;;;;;;5079453;28;20051;-68
2023/08/25 04:25:09;;;;;;;196.25;81.65;;;18.30;99.90;;;;;;5079160;28;20044;-68
2023/08/25 04:27:36;;;;;;;232.65;93.20;;;18.40;99.90;;;;;;5079118;28;20039;-68
2023/08/25 04:30:02;;;;;;;232.90;92.07;;;19.20;99.90;;;;;;5095531;28;20039;-68
2023/08/25 04:32:28;;;;;;;200.60;84.40;;;20.10;99.90;;;;;;5078891;28;20043;-68
2023/08/25 04:34:54;;;;;;;222.05;90.28;;;19.80;99.90;;;;;;5095639;28;20479;-68
2023/08/25 04:37:20;;;;;;;215.80;87.40;;;18.00;99.90;;;;;;5095317;28;20035;-68
2023/08/25 04:39:46;;;;;;;214.77;89.00;;;;;;;;;;5095340;28;20039;-68
2023/08/25 04:42:12;;;;;;;185.05;77.47;;;;;;;;;;5095361;28;20452;-68
2023/08/25 04:44:37;;;;;;;214.88;91.75;;;19.90;99.90;;;;;;5095235;28;20043;-68
2023/08/25 04:47:04;;;;;;;183.13;83.30;;;;;;;;;;5095224;28;20524;-68
2023/08/25 04:49:29;;;;;;;201.48;88.93;;;20.10;99.90;;;;;;5095306;28;20039;-68
2023/08/25 04:51:55;;;;;;;204.23;86.53;;;20.10;99.90;;;;;;5095262;28;20484;-68
2023/08/25 04:54:21;;;;;;;185.15;80.20;;;;;;;;;;5094613;28;20044;-68
2023/08/25 04:56:47;;;;;;;195.98;86.38;;;;;;;;;;5095258;28;20043;-68
2023/08/25 04:59:13;;;;;;;201.63;84.22;;;20.10;99.90;;;;;;5095585;28;20048;-68
2023/08/25 05:01:39;;;;;;;191.85;86.93;;;;;;;;;;5095304;28;20050;-73
2023/08/25 05:04:05;;;;;;;178.23;83.43;;;19.90;99.90;;;;;;5095129;28;20097;-73
2023/08/25 05:06:31;;;;;;;170.15;82.75;;;;;;;;;;5078192;28;20065;-73
2023/08/25 05:08:57;;;;;;;173.70;80.00;;;19.80;99.90;;;;;;5094836;28;20044;-73
2023/08/25 05:11:22;;;;;;;169.07;80.72;;;19.70;99.90;;;;;;5078207;28;20545;-73
2023/08/25 05:13:48;;;;;;;168.85;80.90;;;18.80;99.90;;;;;;5095056;28;20123;-73
2023/08/25 05:16:17;;;;;;;166.38;78.30;;;;;;;;;;5095066;28;20096;-73
2023/08/25 05:18:43;;;;;;;145.07;71.78;;;19.90;99.90;;;;;;5095076;28;20040;-72
2023/08/25 05:21:09;;;;;;;166.45;80.38;;;19.50;99.90;;;;;;5094993;28;20050;-73
2023/08/25 05:23:35;;;;;;;151.85;69.78;;;18.30;99.90;;;;;;5078116;28;20039;-73
2023/08/25 05:26:01;;;;;;;134.10;68.95;;;18.10;99.90;;;;;;5095432;28;20043;-73
2023/08/25 05:28:26;;;;;;;144.00;72.40;;;19.50;99.90;;;;;;5094838;28;20130;-73
2023/08/25 05:30:52;;;;;;;143.43;72.15;;;;;;;;;;5094825;28;20044;-68
2023/08/25 05:33:18;;;;;;;132.38;68.63;;;;;;;;;;5078125;28;20096;-68
2023/08/25 05:35:44;;;;;;;139.02;71.35;;;;;;;;;;5094822;28;20050;-68
2023/08/25 05:38:10;;;;;;;122.47;64.80;;;18.50;99.90;;;;;;5078277;28;20162;-68
2023/08/25 05:40:36;;;;;;;139.25;68.72;;;;;;;;;;5094678;28;20189;-73
2023/08/25 05:43:02;;;;;;;115.40;63.08;;;19.60;99.90;;;;;;5095125;28;20044;-73
2023/08/25 05:45:28;;;;;;;125.40;67.85;;;;;;;;;;5094713;28;20406;-73
2023/08/25 05:47:54;;;;;;;130.45;66.00;;;;;;;;;;5077959;28;20035;-73
2023/08/25 05:50:20;;;;;;;115.40;60.10;;;;;;;;;;5094726;28;20040;-73
2023/08/25 05:52:47;;;;;;;111.55;61.47;;;;;;;;;;5077870;28;20472;-73
2023/08/25 05:55:13;;;;;;;104.25;57.15;;;18.00;99.90;;;;;;5094567;28;20042;-73
2023/08/25 05:57:39;;;;;;;95.65;53.72;;;19.80;99.90;;;;;;5094763;28;20043;-73
2023/08/25 06:00:06;;;;;;;101.05;53.25;;;20.00;99.90;;;;;;5094670;28;20040;-73
2023/08/25 06:02:32;;;;;;;84.32;51.00;;;19.70;99.90;;;;;;5094684;28;20047;-73
2023/08/25 06:04:59;;;;;;;96.47;48.20;;;18.70;99.90;;;;;;5078951;28;20045;-73
2023/08/25 06:07:25;;;;;;;86.95;45.97;;;;;;;;;;5098202;28;20556;-73
2023/08/25 06:09:51;;;;;;;76.65;44.38;;;18.30;99.90;;;;;;5077703;28;20500;-75
2023/08/25 06:12:17;;;;;;;73.90;42.13;;;18.80;99.90;;;;;;5094987;28;20076;-73
2023/08/25 06:14:43;;;;;;;72.13;43.75;;;;;;;;;;5094881;28;20044;-73
2023/08/25 06:17:09;;;;;;;70.35;43.35;;;19.80;99.90;;;;;;5078216;28;20108;-73
2023/08/25 06:19:36;;;;;;;74.40;43.58;;;;;;;;;;5094632;28;20551;-73
2023/08/25 06:22:02;;;;;;;67.90;39.88;;;;;;;;;;5094656;28;20048;-73
2023/08/25 06:24:28;;;;;;;71.07;41.20;;;19.80;99.90;;;;;;5094945;28;20048;-73
2023/08/25 06:26:54;;;;;;;65.43;40.92;;;20.10;99.90;;;;;;5094594;28;20453;-73
2023/08/25 06:29:20;;;;;;;70.78;40.90;;;;;;;;;;5095811;28;20226;-73
2023/08/25 06:31:46;;;;;;;60.33;37.17;;;19.10;99.90;;;;;;5094594;28;20094;-76
2023/08/25 06:34:11;;;;;;;67.53;39.30;;;19.60;99.90;;;;;;5094404;28;20036;-76
2023/08/25 06:36:37;;;;;;;68.60;39.75;;;20.20;99.90;;;;;;5094574;28;20044;-73
2023/08/25 06:39:03;;;;;;;62.35;38.47;;;18.70;99.90;;;;;;5094596;28;20040;-73
2023/08/25 06:41:30;;;;;;;59.75;37.45;;;20.00;99.90;;;;;;5077699;28;20036;-73
2023/08/25 06:43:57;;;;;;;66.43;38.03;;;20.20;99.90;;;;;;5094198;28;20040;-73
2023/08/25 06:46:23;;;;;;;60.63;34.10;;;19.60;99.90;;;;;;5077740;28;20051;-73
2023/08/25 06:48:50;;;;;;;65.30;37.38;;;18.20;99.90;;;;;;5077140;28;20044;-73
2023/08/25 06:51:16;;;;;;;61.22;37.92;;;19.70;99.90;;;;;;5094455;28;20113;-73
2023/08/25 06:53:41;;;;;;;58.15;33.90;;;19.90;99.90;;;;;;5094242;28;20035;-73
2023/08/25 06:56:07;;;;;;;64.53;39.22;;;18.00;99.90;;;;;;5077114;28;20553;-73
2023/08/25 06:58:33;;;;;;;53.85;34.13;;;20.20;99.90;;;;;;5077470;28;20036;-74
2023/08/25 07:00:59;;;;;;;66.43;35.67;;;;;;;;;;5095241;28;20502;-74
2023/08/25 07:03:25;;;;;;;58.40;35.60;;;;;;;;;;5076915;28;20040;-74
2023/08/25 07:05:57;;;;;;;70.63;39.03;;;19.80;99.90;;;;;;5093768;28;20484;-74
2023/08/25 07:08:25;;;;;;;63.15;36.63;;;19.40;99.90;;;;;;5093961;28;20039;-74
2023/08/25 07:10:51;;;;;;;70.80;39.60;;;19.70;99.90;;;;;;5080253;28;20058;-74
2023/08/25 07:13:17;;;;;;;70.55;39.83;;;;;;;;;;5097346;28;20363;-74
2023/08/25 07:15:43;;;;;;;75.85;38.83;;;19.60;99.90;;;;;;5080304;28;20075;-74
2023/08/25 07:18:09;;;;;;;75.93;37.42;;;;;;;;;;5096117;28;20533;-74
2023/08/25 07:20:35;;;;;;;63.03;37.85;;;19.30;99.90;;;;;;5097323;28;20441;-74
2023/08/25 07:23:01;;;;;;;68.32;38.40;;;18.40;99.90;;;;;;5079917;28;20039;-74
2023/08/25 07:25:27;;;;;;;68.38;38.58;;;19.60;99.90;;;;;;5097121;28;20055;-74
2023/08/25 07:27:53;;;;;;;62.55;35.63;;;;;;;;;;5079911;28;20039;-74
2023/08/25 07:30:19;;;;;;;73.95;37.25;;;;;;;;;;5096781;28;20387;-74
2023/08/25 07:32:45;;;;;;;70.90;38.47;;;;;;;;;;5096635;28;20042;-74
2023/08/25 07:35:11;;;;;;;67.53;37.67;;;19.90;99.90;;;;;;5079849;28;20031;-74
2023/08/25 07:37:41;;;;;;;69.95;38.70;;;;;;;;;;5079617;28;20039;-74
2023/08/25 07:40:07;;;;;;;72.65;39.67;;;20.60;99.90;;;;;;5079959;28;20039;-74
2023/08/25 07:42:33;;;;;;;75.20;41.92;;;20.60;99.90;;;;;;5096770;28;20054;-74
2023/08/25 07:44:59;;;;;;;81.78;40.95;;;18.70;99.90;;;;;;5096569;28;20039;-74
2023/08/25 07:47:24;;;;;;;76.22;40.30;;;20.80;99.90;;;;;;5096249;28;20057;-74
2023/08/25 07:49:50;;;;;;;79.38;42.30;;;;;;;;;;5079476;28;20044;-74
2023/08/25 07:52:16;;;;;;;65.60;37.15;;;20.30;99.90;;;;;;5096329;28;20043;-74
2023/08/25 07:54:42;;;;;;;80.03;42.33;;;20.20;99.90;;;;;;5096312;28;20032;-74
2023/08/25 07:57:08;;;;;;;74.30;42.88;;;20.50;99.90;;;;;;5079551;28;20028;-74
2023/08/25 07:59:34;;;;;;;76.18;40.85;;;;;;;;;;5096429;28;20516;-73
2023/08/25 08:02:02;;;;;;;82.28;42.25;;;19.50;99.90;;;;;;5096325;28;20387;-74
2023/08/25 08:04:30;;;;;;;73.72;39.78;;;19.30;99.90;;;;;;5114390;28;20075;-74
2023/08/25 08:06:57;;;;;;;81.75;43.45;;;20.90;99.90;;;;;;5114222;28;20533;-74
2023/08/25 08:09:25;;;;;;;83.30;42.53;;;20.50;99.90;;;;;;5092344;28;20101;-74
2023/08/25 08:11:52;;;;;;;84.93;44.38;;;;;;;;;;5076092;28;20032;-74
2023/08/25 08:14:18;;;;;;;81.43;42.47;;;20.70;99.90;;;;;;5092355;28;20040;-74
2023/08/25 08:16:43;;;;;;;76.05;39.03;;;20.80;99.90;;;;;;5092525;28;20044;-74
2023/08/25 08:19:10;;;;;;;78.03;42.08;;;;;;;;;;5092481;28;20043;-74
2023/08/25 08:21:36;;;;;;;83.00;42.97;;;21.00;99.90;;;;;;5075689;28;20055;-69
2023/08/25 08:24:02;;;;;;;89.45;43.78;;;;;;;;;;5075361;28;20568;-69
2023/08/25 08:26:29;;;;;;;89.85;41.88;;;;;;;;;;5092296;28;20077;-69
2023/08/25 08:28:55;;;;;;;90.43;41.65;;;19.00;99.90;;;;;;5092099;28;20519;-69
2023/08/25 08:31:21;;;;;;;78.97;40.38;;;;;;;;;;5075548;28;20044;-69
2023/08/25 08:33:48;;;;;;;82.57;40.95;;;19.20;99.90;;;;;;5092287;28;20051;-69
2023/08/25 08:36:19;;;;;;;88.70;42.65;;;19.00;99.90;;;;;;5075443;28;20032;-69
2023/08/25 08:38:45;;;;;;;82.15;39.80;;;21.00;99.90;;;;;;5092091;28;20118;-69
2023/08/25 08:41:11;;;;;;;89.07;42.22;;;21.00;99.90;;;;;;5075480;28;20122;-69
2023/08/25 08:43:41;;;;;;;78.82;40.42;;;20.10;99.90;;;;;;5091798;28;20043;-69
2023/08/25 08:46:07;;;;;;;76.65;38.53;;;21.00;99.90;;;;;;5075534;28;20123;-69
2023/08/25 08:48:34;;;;;;;82.53;38.47;;;20.30;99.90;;;;;;5091665;28;20452;-69
2023/08/25 08:51:02;;;;;;;74.05;38.28;;;19.30;99.90;;;;;;5091916;28;20051;-69
2023/08/25 08:53:28;;;;;;;68.35;35.55;;;19.70;99.90;;;;;;5075233;28;20035;-69
2023/08/25 08:55:56;;;;;;;74.15;36.63;;;21.10;99.90;;;;;;5074815;28;20047;-69
2023/08/25 08:58:22;;;;;;;78.10;35.38;;;;;;;;;;5091681;28;20050;-69
2023/08/25 09:00:49;;;;;;;68.53;36.67;;;21.00;99.90;;;;;;5091667;28;20044;-70
2023/08/25 09:03:19;;;;;;;71.57;34.92;;;21.20;99.90;;;;;;5075187;28;20391;-69
2023/08/25 09:05:47;;;;;;;63.40;33.30;;;20.80;99.90;;;;;;5091756;28;20060;-69
2023/08/25 09:08:14;;;;;;;66.57;33.63;;;20.90;99.90;;;;;;5091668;28;20503;-69
2023/08/25 09:10:40;;;;;;;62.65;32.47;;;;;;;;;;5091424;28;20044;-69
2023/08/25 09:13:07;;;;;;;65.20;32.50;;;;;;;;;;5075000;28;20085;-69
2023/08/25 09:15:33;;;;;;;67.00;33.72;;;20.20;99.90;;;;;;5091592;28;20093;-70
2023/08/25 09:18:03;;;;;;;56.15;32.22;;;19.80;99.90;;;;;;5091640;28;20047;-74
2023/08/25 09:20:30;;;;;;;64.65;30.70;;;21.20;99.90;;;;;;5074896;28;20044;-74
2023/08/25 09:22:57;;;;;;;56.83;30.90;;;21.30;99.90;;;;;;5091832;28;20385;-74
2023/08/25 09:25:24;;;;;;;63.40;33.17;;;20.20;99.90;;;;;;5091551;28;20044;-74
2023/08/25 09:27:59;;;;;;;57.13;29.48;;;20.30;99.90;;;;;;5091461;28;20051;-74
2023/08/25 09:30:39;;;;;;;50.78;28.67;;;20.60;99.90;;;;;;5091449;28;20178;-74
2023/08/25 09:33:07;;;;;;;55.45;28.33;;;21.50;99.90;;;;;;5091831;28;20471;-73
2023/08/25 09:35:34;;;;;;;47.35;26.45;;;22.00;99.90;;;;;;5091684;28;20177;-73
2023/08/25 09:37:59;;;;;;;55.20;28.90;;;22.00;99.90;;;;;;5091422;28;20115;-73
2023/08/25 09:40:29;;;;;;;54.38;27.00;;;22.30;99.90;;;;;;5093052;28;20127;-73
2023/08/25 09:43:03;;;;;;;53.55;28.27;;;21.50;99.90;;;;;;5078521;28;20036;-73
2023/08/25 09:45:31;;;;;;;63.97;31.55;;;22.00;99.90;;;;;;5078693;28;20443;-74
2023/08/25 09:48:12;;;;;;;67.70;30.02;;;20.50;99.90;;;;;;5095524;28;20044;-74
2023/08/25 09:50:39;;;;;;;51.38;29.27;;;21.90;99.90;;;;;;5095189;28;20039;-74
2023/08/25 09:53:06;;;;;;;50.67;28.38;;;22.20;99.90;;;;;;5095259;28;20032;-74
2023/08/25 09:55:36;;;;;;;56.80;29.15;;;21.90;99.90;;;;;;5095411;28;20040;-74
2023/08/25 09:58:06;;;;;;;51.05;28.33;;;22.10;99.90;;;;;;5095166;28;20036;-74
2023/08/25 10:00:37;;;;;;;45.88;27.52;;;21.80;99.90;;;;;;5095017;28;20040;-74
2023/08/25 10:03:05;;;;;;;54.30;27.33;;;22.10;99.90;;;;;;5094982;28;20040;-73
2023/08/25 10:05:32;;;;;;;55.83;27.55;;;20.30;99.90;;;;;;5095055;28;20036;-73
2023/08/25 10:07:59;;;;;;;50.08;26.35;;;20.80;99.90;;;;;;5078319;28;20043;-73
2023/08/25 10:10:29;;;;;;;50.28;27.85;;;21.60;99.90;;;;;;5094810;28;20056;-73
2023/08/25 10:12:57;;;;;;;51.80;26.92;;;22.10;99.90;;;;;;5077952;28;20048;-73
2023/08/25 10:15:27;;;;;;;53.63;27.83;;;21.20;99.90;;;;;;5061575;28;20127;-74
2023/08/25 10:17:57;;;;;;;45.42;27.40;;;21.00;99.90;;;;;;5094814;28;20040;-74
2023/08/25 10:20:23;;;;;;;52.95;29.15;;;21.50;99.90;;;;;;5094719;28;20105;-73
2023/08/25 10:22:51;;;;;;;57.65;30.25;;;21.90;99.90;;;;;;5096109;28;20036;-74
2023/08/25 10:25:18;;;;;;;56.92;31.08;;;22.10;99.90;;;;;;5094650;28;20036;-74
2023/08/25 10:27:45;;;;;;;58.35;29.35;;;22.70;99.90;;;;;;5094464;28;20214;-69
2023/08/25 10:30:12;;;;;;;55.03;28.80;;;21.70;99.90;;;;;;5077722;28;20046;-70
2023/08/25 10:32:56;;;;;;;48.10;28.52;;;21.10;99.90;;;;;;5077918;28;20451;-69
2023/08/25 10:35:42;;;;;;;52.55;29.60;;;21.80;99.90;;;;;;5094359;28;20072;-70
2023/08/25 10:38:20;;;;;;;58.25;29.50;;;21.90;99.90;;;;;;5094231;28;20453;-70
2023/08/25 10:40:56;;;;;;;51.33;29.17;;;22.50;99.90;;;;;;5094641;28;20509;-70
2023/08/25 10:43:26;;;;;;;54.55;29.27;;;22.50;99.90;;;;;;5094494;28;20119;-70
2023/08/25 10:45:52;;;;;;;51.60;29.50;;;21.10;99.90;;;;;;5094144;28;20044;-74
2023/08/25 10:48:21;;;;;;;50.45;29.35;;;22.20;99.90;;;;;;5077703;28;20121;-74
2023/08/25 10:50:51;;;;;;;55.42;29.80;;;21.50;99.90;;;;;;5093852;28;20048;-74
2023/08/25 10:53:50;;;;;;;53.80;28.85;;;21.80;99.90;;;;;;5093248;28;20568;-74
2023/08/25 10:56:21;;;;;;;58.17;28.40;;;20.80;99.90;;;;;;5039796;28;20048;-74
2023/08/25 10:59:09;;;;;;;48.92;29.00;;;21.70;99.90;;;;;;5094162;28;20040;-74
2023/08/25 11:01:38;;;;;;;54.53;28.40;;;21.00;99.90;;;;;;5093978;28;20484;-74
2023/08/25 11:04:11;;;;;;;46.90;28.58;;;21.80;99.90;;;;;;5093911;28;20032;-75
2023/08/25 11:06:38;;;;;;;50.40;28.10;;;;;;;;;;5077205;28;20058;-75
2023/08/25 11:09:04;;;;;;;54.10;27.73;;;21.80;99.90;;;;;;5093612;28;20055;-74
2023/08/25 11:11:33;;;;;;;47.90;28.05;;;22.10;99.90;;;;;;5094017;28;20385;-74
2023/08/25 11:13:59;;;;;;;48.97;27.13;;;22.20;99.90;;;;;;5093711;28;20036;-74
2023/08/25 11:16:25;;;;;;;42.45;26.92;;;;;;;;;;5077135;28;20039;-75
2023/08/25 11:18:51;;;;;;;53.30;28.05;;;;;;;;;;5077025;28;20040;-73
2023/08/25 11:21:21;;;;;;;47.58;25.98;;;21.50;99.90;;;;;;5095439;28;20124;-74
2023/08/25 11:23:47;;;;;;;48.92;28.25;;;;;;;;;;5095128;28;20040;-74
2023/08/25 11:26:17;;;;;;;45.67;25.80;;;21.90;99.90;;;;;;5094247;28;20032;-75
2023/08/25 11:28:43;;;;;;;49.67;25.88;;;;;;;;;;5093496;28;20180;-74
2023/08/25 11:31:09;;;;;;;48.65;24.25;;;21.10;99.90;;;;;;5093503;28;20032;-74
2023/08/25 11:33:35;;;;;;;46.55;25.05;;;22.30;99.90;;;;;;5076563;28;20044;-75
2023/08/25 11:36:03;;;;;;;38.72;22.70;;;22.50;99.90;;;;;;5093225;28;20043;-75
2023/08/25 11:38:30;;;;;;;39.40;21.77;;;21.70;99.90;;;;;;5076644;28;20192;-75
2023/08/25 11:40:56;;;;;;;33.85;20.80;;;;;;;;;;5076714;28;20446;-75
2023/08/25 11:43:36;;;;;;;38.75;21.75;;;21.90;99.90;;;;;;5093153;28;20040;-74
2023/08/25 11:46:06;;;;;;;45.50;23.88;;;20.80;99.90;;;;;;5093244;28;20048;-75
2023/08/25 11:48:35;;;;;;;44.70;24.17;;;21.50;99.90;;;;;;5093304;28;20443;-75
2023/08/25 11:51:01;;;;;;;44.67;24.85;;;21.10;99.90;;;;;;5092743;28;20044;-75
2023/08/25 11:53:27;;;;;;;40.58;24.15;;;22.20;99.90;;;;;;5092876;28;20044;-75
2023/08/25 11:56:03;;;;;;;44.15;25.70;;;22.60;99.90;;;;;;5092854;28;20135;-76
2023/08/25 11:58:34;;;;;;;46.33;25.25;;;22.70;99.90;;;;;;5093225;28;20048;-76
2023/08/25 12:01:07;;;;;;;46.55;25.98;;;22.00;99.90;;;;;;5092883;28;20466;-74
2023/08/25 12:03:35;;;;;;;49.72;26.23;;;22.50;99.90;;;;;;5092473;28;20052;-77
2023/08/25 12:06:05;;;;;;;41.08;26.52;;;21.80;99.90;;;;;;5092799;28;20105;-76
2023/08/25 12:08:32;;;;;;;42.00;25.02;;;22.60;99.90;;;;;;5094282;28;20039;-75
2023/08/25 12:10:59;;;;;;;43.15;25.83;;;22.50;99.90;;;;;;5078925;28;20487;-76
2023/08/25 12:13:26;;;;;;;47.97;27.15;;;22.40;99.90;;;;;;5096009;28;20031;-76
2023/08/25 12:15:53;;;;;;;50.97;26.67;;;22.50;99.90;;;;;;5095851;28;20389;-71
2023/08/25 12:18:21;;;;;;;43.47;25.45;;;22.30;99.90;;;;;;5096046;28;20123;-71
2023/08/25 12:20:47;;;;;;;46.17;26.25;;;;;;;;;;5096091;28;20466;-71
2023/08/25 12:23:14;;;;;;;48.67;27.13;;;22.30;99.90;;;;;;5095769;28;20368;-70
2023/08/25 12:25:43;;;;;;;43.20;25.67;;;22.50;99.90;;;;;;5095573;28;20048;-70
2023/08/25 12:28:10;;;;;;;45.33;26.98;;;23.00;99.90;;;;;;5096002;28;20069;-76
2023/08/25 12:30:37;;;;;;;47.05;24.75;;;21.90;99.90;;;;;;5095553;28;20048;-76
2023/08/25 12:33:03;;;;;;;40.75;23.90;;;23.20;99.90;;;;;;5095812;28;20081;-76
2023/08/25 12:35:29;;;;;;;42.60;24.38;;;22.30;99.90;;;;;;5078721;28;20039;-77
2023/08/25 12:37:55;;;;;;;45.95;25.63;;;;;;;;;;5095839;28;20047;-76
2023/08/25 12:40:21;;;;;;;46.15;25.15;;;22.70;99.90;;;;;;5095513;28;20486;-76
2023/08/25 12:42:48;;;;;;;39.03;23.40;;;23.40;99.90;;;;;;5078687;28;20047;-76
2023/08/25 12:45:14;;;;;;;42.03;24.50;;;;;;;;;;5095411;28;20069;-77